Time;durP1;ratioP1;P1;durP2;ratioP2;P2;SDS_P1;SDS_P2;PMS_P1;PMS_P2;Temp;Humidity;BMP_temperature;BMP_pressure;BME280_temperature;BME280_humidity;BME280_pressure;Samples;Min_cycle;Max_cycle;Signal;HPM_P1;HPM_P2
2022/02/14 00:01:37;;;;;;;7.35;2.20;;;;;;;18.96;46.11;99927.00;5052912;28;20080;-71
2022/02/14 00:04:02;;;;;;;6.73;2.10;;;;;;;18.93;46.00;99925.50;5053723;28;20489;-71
2022/02/14 00:06:27;;;;;;;4.80;2.00;;;;;;;18.92;46.01;99915.91;5052908;28;20285;-71
2022/02/14 00:08:53;;;;;;;3.83;1.70;;;;;;;18.91;45.43;99916.88;5052167;28;20020;-71
2022/02/14 00:11:18;;;;;;;6.75;2.00;;;;;;;18.89;45.72;99916.22;5053168;28;20300;-71
2022/02/14 00:13:44;;;;;;;6.93;2.30;;;;;;;18.86;45.76;99913.88;5053233;28;20465;-70
2022/02/14 00:16:09;;;;;;;5.75;2.20;;;;;;;18.87;45.58;99914.69;5052170;28;20063;-71
2022/02/14 00:18:34;;;;;;;4.27;2.03;;;;;;;18.86;45.85;99913.88;5052999;28;20040;-71
2022/02/14 00:21:00;;;;;;;4.57;1.80;;;;;;;18.83;45.89;99912.38;5052806;28;20266;-72
2022/02/14 00:23:25;;;;;;;5.28;2.17;;;;;;;18.81;45.78;99911.66;5051750;28;20912;-70
2022/02/14 00:25:50;;;;;;;6.68;2.10;;;;;;;18.81;45.74;99905.56;5053216;28;20114;-71
2022/02/14 00:28:16;;;;;;;5.97;2.23;;;;;;;18.78;45.92;99909.31;5052766;28;20481;-72
2022/02/14 00:30:42;;;;;;;3.85;1.70;;;;;;;18.78;45.56;99901.41;5052191;28;20622;-72
2022/02/14 00:33:07;;;;;;;5.05;2.00;;;;;;;18.76;45.68;99897.28;5052514;28;20044;-71
2022/02/14 00:35:32;;;;;;;5.35;2.10;;;;;;;18.72;45.55;99885.34;5051944;28;20025;-71
2022/02/14 00:37:58;;;;;;;5.63;1.83;;;;;;;18.73;45.87;99893.13;5052623;28;20079;-71
2022/02/14 00:40:23;;;;;;;4.20;2.03;;;;;;;18.71;45.76;99888.97;5052107;28;20787;-71
2022/02/14 00:42:48;;;;;;;6.70;2.00;;;;;;;18.70;46.13;99882.03;5051949;28;20829;-71
2022/02/14 00:45:15;;;;;;;4.63;1.85;;;;;;;18.69;46.07;99881.19;5052457;28;20095;-71
2022/02/14 00:47:40;;;;;;;5.40;1.77;;;;;;;18.68;45.81;99876.91;5052403;28;20515;-71
2022/02/14 00:50:08;;;;;;;6.53;1.98;;;;;;;18.66;46.12;99886.81;5051899;28;20025;-71
2022/02/14 00:52:33;;;;;;;6.70;1.90;;;;;;;18.66;45.85;99871.78;5052346;28;20067;-71
2022/02/14 00:54:59;;;;;;;5.32;1.85;;;;;;;18.64;45.90;99863.19;5052618;28;20021;-71
2022/02/14 00:57:24;;;;;;;5.88;1.80;;;;;;;18.62;45.98;99862.50;5051554;28;20124;-71
2022/02/14 00:59:50;;;;;;;7.05;1.65;;;;;;;18.61;45.94;99857.38;5052657;28;20419;-71
2022/02/14 01:02:18;;;;;;;5.00;1.88;;;;;;;18.57;45.43;99848.13;5052264;28;20128;-72
2022/02/14 01:04:43;;;;;;;5.07;1.70;;;;;;;18.59;46.04;99839.06;5051588;28;20024;-71
2022/02/14 01:07:11;;;;;;;4.90;1.93;;;;;;;18.58;46.10;99842.69;5051948;28;20041;-71
2022/02/14 01:09:37;;;;;;;4.93;1.70;;;;;;;18.55;45.79;99834.22;5052499;28;20285;-71
2022/02/14 01:12:03;;;;;;;4.47;1.90;;;;;;;18.55;46.00;99819.25;5051619;28;20032;-71
2022/02/14 01:14:28;;;;;;;4.45;1.90;;;;;;;18.54;46.19;99825.50;5052144;28;20285;-71
2022/02/14 01:16:57;;;;;;;5.30;2.00;;;;;;;18.51;45.92;99820.53;5052599;28;20021;-71
2022/02/14 01:19:22;;;;;;;5.28;1.90;;;;;;;18.52;46.24;99811.63;5051150;28;20199;-71
2022/02/14 01:21:48;;;;;;;5.10;1.83;;;;;;;18.52;46.20;99810.78;5054422;28;20108;-71
2022/02/14 01:24:13;;;;;;;5.70;2.00;;;;;;;18.49;46.17;99810.13;5056315;28;20025;-72
2022/02/14 01:26:42;;;;;;;6.30;2.03;;;;;;;18.48;46.13;99794.44;5055658;28;20293;-72
2022/02/14 01:29:07;;;;;;;5.70;1.40;;;;;;;18.48;46.51;99791.78;5056118;28;20075;-71
2022/02/14 01:31:33;;;;;;;5.50;1.75;;;;;;;18.47;46.37;99790.16;5056252;28;20029;-71
2022/02/14 01:33:58;;;;;;;7.60;2.00;;;;;;;18.45;46.76;99790.31;5055565;28;20111;-71
2022/02/14 01:36:23;;;;;;;5.05;1.90;;;;;;;18.45;46.43;99790.31;5055801;28;20273;-71
2022/02/14 01:38:49;;;;;;;4.88;1.50;;;;;;;18.44;46.44;99772.81;5055901;28;20438;-71
2022/02/14 01:41:14;;;;;;;3.72;1.50;;;;;;;18.42;46.18;99777.44;5055644;28;20037;-70
2022/02/14 01:43:40;;;;;;;4.65;1.90;;;;;;;18.42;46.69;99771.28;5055839;28;20373;-71
2022/02/14 01:46:05;;;;;;;4.18;1.67;;;;;;;18.40;46.24;99771.44;5055265;28;20021;-70
2022/02/14 01:48:31;;;;;;;4.00;1.60;;;;;;;18.40;46.69;99763.53;5055540;28;20524;-71
2022/02/14 01:50:56;;;;;;;4.30;1.70;;;;;;;18.38;46.82;99762.06;5055804;28;20025;-70
2022/02/14 01:53:23;;;;;;;4.65;2.20;;;;;;;18.39;46.87;99758.41;5054830;28;20376;-70
2022/02/14 01:55:50;;;;;;;4.68;1.85;;;;;;;18.37;46.71;99760.38;5055725;28;20044;-70
2022/02/14 01:58:15;;;;;;;4.57;2.05;;;;;;;18.35;46.80;99747.34;5055335;28;20469;-71
2022/02/14 02:00:41;;;;;;;5.47;2.00;;;;;;;18.35;46.56;99755.25;5054910;28;20048;-70
2022/02/14 02:03:07;;;;;;;5.75;1.70;;;;;;;18.34;46.72;99752.78;5055441;28;20650;-70
2022/02/14 02:05:32;;;;;;;5.15;1.88;;;;;;;18.35;46.45;99759.72;5055480;28;20033;-71
2022/02/14 02:07:58;;;;;;;3.90;1.70;;;;;;;18.34;46.82;99739.59;5055203;28;20110;-72
2022/02/14 02:10:25;;;;;;;4.95;1.63;;;;;;;18.34;47.00;99737.78;5055200;28;20079;-70
2022/02/14 02:12:53;;;;;;;3.85;1.80;;;;;;;18.31;46.96;99715.19;5055438;28;20465;-70
2022/02/14 02:15:18;;;;;;;4.18;1.70;;;;;;;18.30;46.56;99724.06;5054531;28;20033;-70
2022/02/14 02:17:44;;;;;;;6.55;2.00;;;;;;;18.31;46.69;99717.00;5055375;28;20436;-70
2022/02/14 02:20:13;;;;;;;5.53;1.90;;;;;;;18.30;47.01;99729.34;5055030;28;20115;-71
2022/02/14 02:22:39;;;;;;;4.47;1.60;;;;;;;18.29;47.02;99722.44;5054540;28;20064;-70
2022/02/14 02:25:04;;;;;;;4.05;1.60;;;;;;;18.27;46.69;99710.34;5055117;28;20064;-72
2022/02/14 02:27:30;;;;;;;6.25;1.90;;;;;;;18.28;46.85;99706.75;5054922;28;20083;-71
2022/02/14 02:29:58;;;;;;;3.90;1.60;;;;;;;18.27;47.05;99703.25;5054430;28;20021;-71
2022/02/14 02:32:25;;;;;;;4.85;1.83;;;;;;;18.26;46.78;99706.91;5054569;28;20754;-71
2022/02/14 02:34:51;;;;;;;4.82;2.20;;;;;;;18.25;46.85;99705.22;5055006;28;20036;-71
2022/02/14 02:37:17;;;;;;;6.93;1.92;;;;;;;18.25;46.73;99712.34;5054096;28;20457;-72
2022/02/14 02:39:43;;;;;;;6.30;2.17;;;;;;;18.24;46.92;99698.28;5054810;28;20091;-70
2022/02/14 02:42:11;;;;;;;5.13;1.80;;;;;;;18.24;46.91;99695.66;5053890;28;20136;-70
2022/02/14 02:44:37;;;;;;;5.55;1.98;;;;;;;18.24;47.13;99692.19;5054891;28;20045;-71
2022/02/14 02:47:06;;;;;;;4.70;1.70;;;;;;;18.23;47.10;99678.19;5054880;28;20025;-71
2022/02/14 02:49:31;;;;;;;4.95;1.80;;;;;;;18.23;47.06;99683.47;5053863;28;20047;-72
2022/02/14 02:51:57;;;;;;;3.97;1.50;;;;;;;18.22;46.95;99687.09;5054934;28;20472;-72
2022/02/14 02:54:24;;;;;;;5.25;1.75;;;;;;;18.20;47.21;99675.88;5054544;28;20021;-72
2022/02/14 02:56:51;;;;;;;5.13;1.70;;;;;;;18.20;46.97;99681.13;5053857;28;20510;-71
2022/02/14 02:59:17;;;;;;;4.90;1.45;;;;;;;18.20;47.09;99677.66;5054398;28;20025;-72
2022/02/14 03:01:42;;;;;;;5.28;2.03;;;;;;;18.20;46.90;99661.84;5054345;28;20025;-71
2022/02/14 03:04:11;;;;;;;5.18;2.00;;;;;;;18.18;46.92;99669.91;5053378;28;20057;-71
2022/02/14 03:06:37;;;;;;;6.10;1.65;;;;;;;18.18;47.05;99661.16;5054456;28;20511;-71
2022/02/14 03:09:04;;;;;;;5.70;1.77;;;;;;;18.18;47.08;99666.44;5054511;28;20358;-71
2022/02/14 03:11:29;;;;;;;4.75;1.60;;;;;;;18.17;47.05;99662.16;5053287;28;20064;-71
2022/02/14 03:13:54;;;;;;;4.70;1.60;;;;;;;18.16;47.06;99663.13;5054267;28;20114;-71
2022/02/14 03:16:20;;;;;;;4.93;1.70;;;;;;;18.16;46.93;99660.50;5053791;28;20021;-71
2022/02/14 03:18:46;;;;;;;4.63;1.70;;;;;;;18.15;47.18;99656.19;5053681;28;20457;-71
2022/02/14 03:21:12;;;;;;;5.43;1.75;;;;;;;18.15;47.05;99656.19;5054095;28;20025;-71
2022/02/14 03:23:38;;;;;;;5.45;1.80;;;;;;;18.13;47.38;99657.19;5054250;28;20028;-71
2022/02/14 03:26:03;;;;;;;4.50;1.67;;;;;;;18.13;47.46;99641.38;5053374;28;20500;-71
2022/02/14 03:28:29;;;;;;;5.07;1.45;;;;;;;18.13;47.15;99648.44;5053643;28;20028;-71
2022/02/14 03:30:55;;;;;;;4.13;1.70;;;;;;;18.12;47.17;99641.53;5053860;28;20029;-71
2022/02/14 03:33:20;;;;;;;3.85;1.38;;;;;;;18.12;47.47;99639.72;5052933;28;20076;-71
2022/02/14 03:35:47;;;;;;;5.97;2.17;;;;;;;18.11;47.49;99635.41;5053905;28;20056;-71
2022/02/14 03:38:13;;;;;;;4.35;1.52;;;;;;;18.11;47.16;99645.13;5053305;28;20040;-70
2022/02/14 03:40:39;;;;;;;4.25;1.30;;;;;;;18.10;47.31;99635.56;5053307;28;20037;-71
2022/02/14 03:43:08;;;;;;;4.05;1.50;;;;;;;18.10;47.67;99630.28;5053663;28;20103;-71
2022/02/14 03:45:35;;;;;;;3.97;1.63;;;;;;;18.10;47.35;99620.59;5052551;28;20021;-71
2022/02/14 03:48:00;;;;;;;3.80;1.70;;;;;;;18.09;47.24;99615.47;5053951;28;20064;-70
2022/02/14 03:50:27;;;;;;;5.47;1.65;;;;;;;18.07;47.08;99615.63;5053455;28;20488;-70
2022/02/14 03:52:53;;;;;;;4.38;1.38;;;;;;;18.07;47.55;99618.25;5053020;28;20025;-70
2022/02/14 03:55:20;;;;;;;5.45;1.60;;;;;;;18.07;47.22;99615.63;5053212;28;20059;-71
2022/02/14 03:57:47;;;;;;;3.60;1.30;;;;;;;18.07;47.24;99618.25;5053474;28;20457;-71
2022/02/14 04:00:13;;;;;;;5.63;1.80;;;;;;;18.09;48.11;99615.47;5052293;28;20024;-71
2022/02/14 04:02:39;;;;;;;3.65;1.30;;;;;;;18.12;48.28;99613.34;5053121;28;20071;-71
2022/02/14 04:05:05;;;;;;;3.97;1.50;;;;;;;18.14;48.17;99605.28;5053494;28;20539;-71
2022/02/14 04:07:30;;;;;;;4.78;1.50;;;;;;;18.15;48.54;99612.22;5052276;28;20017;-71
2022/02/14 04:09:56;;;;;;;4.10;1.85;;;;;;;18.15;48.19;99593.75;5053412;28;20477;-71
2022/02/14 04:12:21;;;;;;;4.50;1.65;;;;;;;18.18;48.02;99609.25;5052833;28;20047;-71
2022/02/14 04:14:46;;;;;;;2.90;1.23;;;;;;;18.20;48.08;99609.09;5052342;28;20389;-71
2022/02/14 04:17:12;;;;;;;4.63;1.43;;;;;;;18.21;48.21;99610.75;5052861;28;20016;-72
2022/02/14 04:19:38;;;;;;;5.18;1.60;;;;;;;18.21;47.73;99606.31;5053332;28;20290;-71
2022/02/14 04:22:03;;;;;;;3.88;1.30;;;;;;;18.21;47.80;99606.31;5052064;28;20362;-71
2022/02/14 04:24:28;;;;;;;3.30;1.40;;;;;;;18.21;47.66;99600.22;5052690;28;20032;-72
2022/02/14 04:26:54;;;;;;;4.82;1.48;;;;;;;18.23;47.76;99600.88;5052966;28;20477;-71
2022/02/14 04:29:22;;;;;;;3.80;1.40;;;;;;;18.21;47.20;99603.66;5051636;28;20465;-72
2022/02/14 04:31:47;;;;;;;4.57;1.50;;;;;;;18.21;47.54;99608.94;5053090;28;20078;-72
2022/02/14 04:34:14;;;;;;;5.53;1.38;;;;;;;18.23;47.49;99600.88;5052444;28;20116;-72
2022/02/14 04:36:39;;;;;;;2.78;1.30;;;;;;;18.22;47.35;99605.31;5052118;28;20519;-72
2022/02/14 04:39:04;;;;;;;4.10;1.35;;;;;;;18.22;47.38;99601.88;5052692;28;20045;-70
2022/02/14 04:41:30;;;;;;;4.85;1.30;;;;;;;18.20;46.92;99607.31;5052058;28;20044;-71
2022/02/14 04:43:55;;;;;;;3.80;1.37;;;;;;;18.21;46.92;99602.84;5052022;28;20055;-70
2022/02/14 04:46:21;;;;;;;3.55;1.42;;;;;;;18.21;47.10;99594.94;5052264;28;20344;-71
2022/02/14 04:48:46;;;;;;;4.30;1.30;;;;;;;18.23;47.23;99608.78;5051639;28;20029;-71
2022/02/14 04:51:11;;;;;;;5.15;1.40;;;;;;;18.20;47.37;99593.28;5052171;28;20029;-71
2022/02/14 04:53:37;;;;;;;4.78;1.35;;;;;;;18.23;47.40;99600.88;5052405;28;20055;-71
2022/02/14 04:56:03;;;;;;;6.50;1.50;;;;;;;18.24;48.19;99592.81;5050947;28;20033;-71
2022/02/14 04:58:28;;;;;;;3.85;1.50;;;;;;;18.22;48.00;99594.78;5052075;28;20452;-71
2022/02/14 05:00:54;;;;;;;6.10;1.30;;;;;;;18.26;48.25;99606.69;5052587;28;20150;-71
2022/02/14 05:03:19;;;;;;;3.30;1.40;;;;;;;18.26;48.45;99596.13;5051386;28;20070;-71
2022/02/14 05:05:44;;;;;;;5.07;1.40;;;;;;;18.28;48.69;99588.88;5052332;28;20025;-70
2022/02/14 05:08:10;;;;;;;4.23;1.40;;;;;;;18.30;48.23;99592.19;5051896;28;20029;-70
2022/02/14 05:10:35;;;;;;;4.15;1.17;;;;;;;18.31;48.47;99599.13;5051632;28;20286;-71
2022/02/14 05:13:00;;;;;;;5.43;1.40;;;;;;;18.29;48.49;99590.56;5052288;28;20025;-70
2022/02/14 05:15:26;;;;;;;4.55;1.20;;;;;;;18.31;48.34;99590.41;5051840;28;20448;-71
2022/02/14 05:17:51;;;;;;;3.50;1.25;;;;;;;18.29;49.08;99589.72;5051715;28;20056;-71
2022/02/14 05:20:19;;;;;;;4.10;1.50;;;;;;;18.31;48.48;99593.84;5051978;28;20473;-71
2022/02/14 05:22:44;;;;;;;5.45;1.42;;;;;;;18.28;48.39;99593.34;5052152;28;20294;-70
2022/02/14 05:25:09;;;;;;;3.87;1.40;;;;;;;18.31;48.04;99582.50;5051023;28;20021;-71
2022/02/14 05:27:35;;;;;;;5.20;1.23;;;;;;;18.30;47.79;99599.28;5051994;28;20282;-71
2022/02/14 05:30:01;;;;;;;4.47;1.25;;;;;;;18.29;48.08;99597.63;5052315;28;20741;-70
2022/02/14 05:32:26;;;;;;;3.80;1.33;;;;;;;18.29;47.78;99597.63;5051102;28;20041;-70
2022/02/14 05:34:51;;;;;;;4.00;1.50;;;;;;;18.28;48.01;99591.53;5052081;28;20017;-71
2022/02/14 05:37:17;;;;;;;4.03;1.40;;;;;;;18.28;47.53;99601.25;5051598;28;20048;-71
2022/02/14 05:39:44;;;;;;;4.53;1.30;;;;;;;18.29;47.55;99592.34;5051005;28;20041;-71
2022/02/14 05:42:10;;;;;;;3.90;1.42;;;;;;;18.28;47.47;99599.44;5051621;28;20044;-71
2022/02/14 05:44:36;;;;;;;2.97;1.30;;;;;;;18.28;47.26;99591.53;5051783;28;20111;-71
2022/02/14 05:47:01;;;;;;;6.32;1.48;;;;;;;18.26;47.69;99587.38;5051594;28;20481;-70
2022/02/14 05:49:27;;;;;;;3.70;1.60;;;;;;;18.28;47.88;99593.34;5051483;28;20068;-71
2022/02/14 05:51:52;;;;;;;5.07;1.25;;;;;;;18.28;48.36;99598.63;5051678;28;20021;-71
2022/02/14 05:54:17;;;;;;;2.33;1.10;;;;;;;18.26;48.31;99587.38;5051152;28;20025;-71
2022/02/14 05:56:42;;;;;;;3.38;1.20;;;;;;;18.30;48.68;99597.47;5051846;28;20068;-71
2022/02/14 05:59:08;;;;;;;4.00;1.40;;;;;;;18.32;48.50;99597.31;5051184;28;20393;-72
2022/02/14 06:01:33;;;;;;;2.73;1.10;;;;;;;18.32;48.49;99599.94;5051931;28;20373;-71
2022/02/14 06:03:58;;;;;;;4.57;1.30;;;;;;;18.34;48.20;99599.78;5051889;28;20638;-71
2022/02/14 06:06:23;;;;;;;4.32;1.30;;;;;;;18.30;48.66;99591.38;5051009;28;20440;-71
2022/02/14 06:08:49;;;;;;;3.22;1.23;;;;;;;18.33;48.74;99601.63;5055926;28;20032;-72
2022/02/14 06:11:14;;;;;;;4.37;1.30;;;;;;;18.36;49.28;99597.81;5055500;28;20025;-72
2022/02/14 06:13:39;;;;;;;2.90;1.20;;;;;;;18.37;50.00;99600.28;5054749;28;20286;-72
2022/02/14 06:16:04;;;;;;;4.30;1.50;;;;;;;18.37;50.19;99599.47;5055439;28;20285;-72
2022/02/14 06:18:30;;;;;;;4.95;1.20;;;;;;;18.40;50.05;99605.25;5054904;28;20286;-70
2022/02/14 06:20:55;;;;;;;3.85;1.10;;;;;;;18.41;50.40;99600.84;5054667;28;20025;-71
2022/02/14 06:23:20;;;;;;;3.53;1.02;;;;;;;18.44;50.24;99605.81;5054661;28;20067;-71
2022/02/14 06:25:46;;;;;;;4.60;1.23;;;;;;;18.45;50.07;99613.56;5055235;28;20105;-71
2022/02/14 06:28:11;;;;;;;3.90;1.30;;;;;;;18.48;50.14;99617.69;5054191;28;20025;-71
2022/02/14 06:30:36;;;;;;;4.27;1.30;;;;;;;18.51;49.62;99619.19;5055254;28;20487;-71
2022/02/14 06:33:02;;;;;;;3.17;1.23;;;;;;;18.52;50.02;99620.81;5055036;28;20299;-71
2022/02/14 06:35:27;;;;;;;4.28;1.10;;;;;;;18.52;49.85;99619.03;5053927;28;20028;-71
2022/02/14 06:37:53;;;;;;;4.20;1.30;;;;;;;18.55;49.84;99616.09;5055184;28;20072;-71
2022/02/14 06:40:18;;;;;;;4.07;1.20;;;;;;;18.54;49.80;99616.22;5054343;28;20045;-71
2022/02/14 06:42:47;;;;;;;5.53;1.25;;;;;;;18.59;49.62;99606.84;5054500;28;20037;-71
2022/02/14 06:45:14;;;;;;;3.80;1.30;;;;;;;18.60;49.63;99626.16;5054845;28;20021;-71
2022/02/14 06:47:39;;;;;;;3.95;1.20;;;;;;;18.60;49.74;99621.72;5054628;28;20025;-71
2022/02/14 06:50:05;;;;;;;3.37;1.10;;;;;;;18.61;49.65;99631.28;5054419;28;20499;-70
2022/02/14 06:52:31;;;;;;;2.72;1.00;;;;;;;18.62;49.42;99627.66;5054286;28;20302;-71
2022/02/14 06:54:56;;;;;;;3.78;1.20;;;;;;;18.64;49.61;99636.25;5054241;28;20037;-70
2022/02/14 06:57:22;;;;;;;2.57;1.00;;;;;;;18.66;49.36;99630.81;5053521;28;20044;-71
2022/02/14 06:59:50;;;;;;;4.35;1.40;;;;;;;18.68;49.69;99636.75;5054547;28;20260;-71
2022/02/14 07:02:15;;;;;;;3.65;1.10;;;;;;;18.70;49.70;99647.97;5053674;28;20491;-72
2022/02/14 07:04:40;;;;;;;2.67;1.03;;;;;;;18.72;49.75;99642.53;5053618;28;20120;-71
2022/02/14 07:07:08;;;;;;;4.23;1.20;;;;;;;18.71;49.77;99646.16;5054392;28;20108;-71
2022/02/14 07:09:34;;;;;;;2.92;1.05;;;;;;;18.74;49.60;99659.03;5053497;28;20293;-71
2022/02/14 07:12:02;;;;;;;3.33;1.20;;;;;;;18.76;49.42;99670.28;5054121;28;20029;-71
2022/02/14 07:14:27;;;;;;;2.05;0.98;;;;;;;18.77;49.57;99656.09;5053943;28;20282;-71
2022/02/14 07:17:01;;;;;;;2.67;0.93;;;;;;;18.77;49.66;99664.84;5053463;28;20036;-71
2022/02/14 07:19:26;;;;;;;7.13;1.25;;;;;;;18.77;49.66;99677.19;5052714;28;20281;-71
2022/02/14 07:21:51;;;;;;;4.33;1.43;;;;;;;18.78;49.84;99679.69;5053864;28;20071;-71
2022/02/14 07:24:19;;;;;;;3.00;1.10;;;;;;;18.78;49.94;99684.97;5052921;28;20373;-71
2022/02/14 07:26:47;;;;;;;3.15;1.00;;;;;;;18.79;49.64;99697.19;5054221;28;20025;-71
2022/02/14 07:29:13;;;;;;;5.18;1.15;;;;;;;18.78;49.37;99698.16;5054002;28;20384;-71
2022/02/14 07:31:38;;;;;;;3.33;1.10;;;;;;;18.82;49.48;99701.34;5053146;28;20036;-72
2022/02/14 07:34:06;;;;;;;3.80;1.05;;;;;;;18.81;48.91;99699.66;5054105;28;20270;-72
2022/02/14 07:36:33;;;;;;;2.95;1.15;;;;;;;18.83;48.90;99701.19;5053699;28;20036;-73
2022/02/14 07:38:58;;;;;;;4.03;1.08;;;;;;;18.83;48.95;99695.91;5052907;28;20393;-70
2022/02/14 07:41:24;;;;;;;2.72;1.10;;;;;;;18.90;48.74;99721.69;5053452;28;20032;-70
2022/02/14 07:43:49;;;;;;;2.15;0.90;;;;;;;18.90;48.58;99721.69;5053710;28;20529;-69
2022/02/14 07:46:14;;;;;;;2.07;0.90;;;;;;;18.90;48.71;99725.16;5052858;28;20021;-68
2022/02/14 07:48:41;;;;;;;3.63;1.02;;;;;;;18.93;49.01;99727.50;5053704;28;20266;-68
2022/02/14 07:51:07;;;;;;;3.13;1.00;;;;;;;18.95;49.47;99741.34;5053184;28;20499;-69
2022/02/14 07:53:32;;;;;;;2.75;0.80;;;;;;;18.96;48.76;99758.00;5052805;28;20063;-68
2022/02/14 07:55:57;;;;;;;3.70;1.10;;;;;;;18.98;49.21;99766.63;5053685;28;20079;-69
2022/02/14 07:58:22;;;;;;;2.50;1.00;;;;;;;18.98;49.11;99774.56;5052802;28;20277;-68
2022/02/14 08:00:48;;;;;;;3.67;1.00;;;;;;;18.98;49.39;99777.19;5052885;28;20270;-69
2022/02/14 08:03:13;;;;;;;5.03;1.20;;;;;;;18.99;49.52;99781.47;5052925;28;20044;-68
2022/02/14 08:05:38;;;;;;;4.18;1.10;;;;;;;19.01;49.46;99784.81;5053066;28;20036;-69
2022/02/14 08:08:10;;;;;;;2.75;0.88;;;;;;;19.00;49.26;99781.31;5052681;28;20099;-71
2022/02/14 08:10:35;;;;;;;2.50;0.90;;;;;;;19.03;49.27;99786.28;5053323;28;20044;-70
2022/02/14 08:13:00;;;;;;;2.60;0.83;;;;;;;19.05;49.28;99787.94;5052471;28;20029;-68
2022/02/14 08:15:31;;;;;;;3.03;0.90;;;;;;;19.08;49.33;99798.19;5052532;28;20270;-70
2022/02/14 08:17:59;;;;;;;4.45;1.02;;;;;;;19.08;49.33;99803.47;5052998;28;20757;-69
2022/02/14 08:20:27;;;;;;;4.10;1.00;;;;;;;19.09;49.59;99805.13;5051671;28;20425;-70
2022/02/14 08:22:55;;;;;;;5.32;1.10;;;;;;;19.10;49.56;99817.34;5052892;28;20435;-69
2022/02/14 08:25:20;;;;;;;2.25;1.00;;;;;;;19.09;49.85;99813.91;5052960;28;20029;-67
2022/02/14 08:27:45;;;;;;;3.60;1.00;;;;;;;19.09;50.05;99821.81;5052122;28;20104;-68
2022/02/14 08:30:11;;;;;;;4.60;1.15;;;;;;;19.09;50.10;99824.47;5052373;28;20269;-69
2022/02/14 08:32:36;;;;;;;4.57;1.00;;;;;;;19.09;50.06;99824.47;5052633;28;20468;-67
2022/02/14 08:35:02;;;;;;;2.65;1.10;;;;;;;19.07;49.87;99826.41;5000050;28;20132;-67
2022/02/14 08:37:27;;;;;;;3.80;1.10;;;;;;;19.10;50.16;99826.09;5051438;28;20056;-69
2022/02/14 08:39:52;;;;;;;1.98;0.90;;;;;;;19.08;50.09;99827.25;5052179;28;20095;-67
2022/02/14 08:42:17;;;;;;;3.17;1.00;;;;;;;19.12;50.01;99842.63;5051565;28;20072;-69
2022/02/14 08:44:43;;;;;;;2.53;1.17;;;;;;;19.11;49.50;99848.88;5052461;28;20328;-68
2022/02/14 08:47:09;;;;;;;3.15;1.20;;;;;;;19.11;50.03;99861.28;5052098;28;20450;-68
2022/02/14 08:49:35;;;;;;;4.68;1.20;;;;;;;19.08;49.80;99861.59;5051830;28;20043;-69
2022/02/14 08:52:01;;;;;;;4.28;1.50;;;;;;;19.08;49.37;99857.13;5052734;28;20033;-67
2022/02/14 08:54:27;;;;;;;11.75;1.80;;;;;;;19.08;49.91;99858.94;5052052;28;21031;-67
2022/02/14 08:56:56;;;;;;;6.30;1.80;;;;;;;19.07;50.51;99873.13;5051968;28;20566;-68
2022/02/14 08:59:22;;;;;;;3.88;1.58;;;;;;;19.05;50.42;99875.91;5052070;28;20025;-68
2022/02/14 09:01:48;;;;;;;4.32;1.58;;;;;;;19.06;50.53;99880.22;5052051;28;20032;-68
2022/02/14 09:04:15;;;;;;;5.63;1.50;;;;;;;19.06;51.18;99882.88;5051465;28;20437;-68
2022/02/14 09:06:40;;;;;;;4.13;1.70;;;;;;;19.08;50.80;99878.25;5052450;28;20048;-68
2022/02/14 09:09:07;;;;;;;5.53;1.60;;;;;;;19.08;50.77;99894.09;5051695;28;20063;-68
2022/02/14 09:11:32;;;;;;;3.50;1.45;;;;;;;19.08;50.45;99891.44;5052390;28;20029;-68
2022/02/14 09:13:57;;;;;;;4.45;1.63;;;;;;;19.09;50.67;99894.91;5052402;28;20017;-68
2022/02/14 09:16:23;;;;;;;4.43;1.92;;;;;;;19.05;50.49;99891.75;5051095;28;20112;-68
2022/02/14 09:18:48;;;;;;;5.00;2.15;;;;;;;19.10;50.53;99901.84;5052187;28;20070;-68
2022/02/14 09:21:14;;;;;;;5.03;2.28;;;;;;;19.10;50.44;99900.03;5052061;28;20036;-69
2022/02/14 09:23:39;;;;;;;6.85;2.83;;;;;;;19.10;50.99;99901.84;5051480;28;20081;-68
2022/02/14 09:26:07;;;;;;;5.13;2.17;;;;;;;19.11;50.11;99907.00;5052308;28;20025;-68
2022/02/14 09:28:33;;;;;;;5.38;2.30;;;;;;;19.11;50.17;99906.16;5052186;28;20285;-65
2022/02/14 09:30:58;;;;;;;8.00;2.78;;;;;;;19.12;50.61;99919.22;5051464;28;20017;-66
2022/02/14 09:33:26;;;;;;;5.78;2.58;;;;;;;19.13;50.44;99915.56;5051708;28;20021;-67
2022/02/14 09:35:52;;;;;;;5.85;2.70;;;;;;;19.16;50.35;99920.56;5058930;28;20039;-67
2022/02/14 09:38:17;;;;;;;6.70;2.95;;;;;;;19.25;50.88;99917.97;5051343;28;20100;-68
2022/02/14 09:40:45;;;;;;;6.57;3.05;;;;;;;19.27;50.65;99908.91;5052078;28;20504;-68
2022/02/14 09:43:13;;;;;;;7.90;2.58;;;;;;;19.37;50.56;99924.66;5054209;28;20041;-69
2022/02/14 09:45:39;;;;;;;6.32;2.95;;;;;;;19.45;50.20;99930.00;5055993;28;20477;-66
2022/02/14 09:48:06;;;;;;;5.70;2.20;;;;;;;19.49;50.21;99930.53;5056096;28;20036;-67
2022/02/14 09:50:34;;;;;;;6.00;2.40;;;;;;;19.52;49.90;99925.75;5056015;28;20049;-71
2022/02/14 09:53:01;;;;;;;6.40;2.53;;;;;;;19.58;50.07;99927.78;5055678;28;20515;-68
2022/02/14 09:55:26;;;;;;;5.88;2.20;;;;;;;19.62;50.20;99925.66;5055506;28;20500;-61
2022/02/14 09:57:52;;;;;;;5.60;2.38;;;;;;;19.64;50.32;99922.84;5055957;28;20037;-69
2022/02/14 10:00:18;;;;;;;6.70;2.10;;;;;;;19.66;50.17;99934.09;5055221;28;20056;-69
2022/02/14 10:02:43;;;;;;;7.45;2.10;;;;;;;19.68;50.02;99930.31;5056296;28;20432;-71
2022/02/14 10:05:18;;;;;;;7.15;2.10;;;;;;;19.73;49.46;99933.31;5055800;28;20025;-67
2022/02/14 10:07:47;;;;;;;;;;;;;;;19.78;49.56;99926.75;5056481;28;20104;-72
2022/02/14 10:10:12;;;;;;;5.00;1.85;;;;;;;19.82;49.50;99933.38;5055547;28;19913;-69
2022/02/14 10:12:46;;;;;;;3.90;1.60;;;;;;;19.85;49.43;99939.19;5055186;28;20031;-76
2022/02/14 10:15:13;;;;;;;5.13;1.77;;;;;;;19.84;49.79;99948.09;5055894;28;20033;-77
2022/02/14 10:17:41;;;;;;;3.83;1.50;;;;;;;19.86;48.91;99940.84;5055569;28;20555;-68
2022/02/14 10:20:11;;;;;;;3.70;1.42;;;;;;;19.85;48.73;99941.00;5056650;28;20032;-73
2022/02/14 10:23:00;;;;;;;5.72;2.03;;;;;;;19.88;48.92;99953.91;5055906;28;20380;-74
2022/02/14 10:25:29;;;;;;;5.88;1.58;;;;;;;19.88;49.40;99948.63;5054733;28;20470;-66
2022/02/14 10:28:12;;;;;;;5.18;1.60;;;;;;;19.83;48.73;99959.66;5054934;28;20095;-66
2022/02/14 10:30:54;;;;;;;4.07;1.20;;;;;;;19.75;49.49;99965.69;5055139;28;20017;-67
2022/02/14 10:33:20;;;;;;;3.67;1.33;;;;;;;19.69;49.80;99974.28;5054539;28;20036;-67
2022/02/14 10:35:49;;;;;;;4.10;1.30;;;;;;;19.64;49.77;99987.09;5054546;28;20025;-67
2022/02/14 10:38:20;;;;;;;3.72;1.20;;;;;;;19.59;49.59;99989.38;5054833;28;20029;-67
2022/02/14 10:40:53;;;;;;;4.15;1.40;;;;;;;19.55;49.37;99994.16;5053984;28;20044;-67
2022/02/14 10:43:27;;;;;;;6.30;1.38;;;;;;;19.52;49.35;100001.59;5054609;28;20048;-67
2022/02/14 10:45:53;;;;;;;4.45;1.20;;;;;;;19.47;49.47;100007.31;5054752;28;20491;-67
2022/02/14 10:48:32;;;;;;;3.40;1.35;;;;;;;19.44;49.38;100005.00;5053695;28;20111;-67
2022/02/14 10:50:59;;;;;;;3.88;1.35;;;;;;;19.41;49.86;100002.66;5054968;28;20059;-68
2022/02/14 10:53:24;;;;;;;4.10;1.27;;;;;;;19.39;48.22;99994.03;5053170;28;20029;-66
2022/02/14 10:55:54;;;;;;;;;;;;;;;19.35;48.78;100008.53;5054471;28;20039;-66
2022/02/14 10:58:25;;;;;;;;;;;;;;;19.33;48.80;100024.53;5054725;28;19940;-65
2022/02/14 11:00:51;;;;;;;;;;;;;;;19.30;48.07;100003.72;5054794;28;19913;-63
2022/02/14 11:03:16;;;;;;;;;;;;;;;19.29;48.66;100011.78;5054143;28;19920;-63
2022/02/14 11:05:43;;;;;;;;;;;;;;;19.28;48.82;100016.25;5054961;28;20541;-63
2022/02/14 11:08:09;;;;;;;;;;;;;;;19.27;48.68;100019.88;5054356;28;20280;-65
2022/02/14 11:10:38;;;;;;;;;;;;;;;19.27;48.88;100027.78;5054157;28;19916;-64
2022/02/14 11:13:03;;;;;;;;;;;;;;;19.27;49.23;100026.97;5054888;28;20395;-64
2022/02/14 11:15:35;;;;;;;;;;;;;;;19.26;49.47;100030.59;5054055;28;20074;-64
2022/02/14 11:18:02;;;;;;;;;;;;;;;19.25;49.83;100032.41;5054919;28;19920;-64
2022/02/14 11:20:28;;;;;;;;;;;;;;;19.24;49.85;100035.19;5054400;28;19921;-64
2022/02/14 11:22:55;;;;;;;;;;;;;;;19.23;49.71;100044.91;5053777;28;19912;-62
2022/02/14 11:25:39;;;;;;;;;;;;;;;19.23;49.96;100044.09;5054320;28;20012;-62
2022/02/14 11:28:16;;;;;;;;;;;;;;;19.24;49.64;100045.75;5055359;28;19999;-67
2022/02/14 11:30:45;;;;;;;;;;;;;;;19.30;49.82;100045.16;5054209;28;20005;-68
2022/02/14 11:33:14;;;;;;;;;;;;;;;19.37;49.66;100043.56;5054683;28;19916;-70